sensor_id;sensor_type;location;lat;lon;timestamp;P1;durP1;ratioP1;P2;durP2;ratioP2
63965;SDS011;50151;52.030;5.350;2023-11-21T00:01:14;92.90;;;12.43;;
63965;SDS011;50151;52.030;5.350;2023-11-21T00:03:41;69.65;;;12.23;;
63965;SDS011;50151;52.030;5.350;2023-11-21T00:06:07;71.13;;;12.70;;
63965;SDS011;50151;52.030;5.350;2023-11-21T00:08:38;75.32;;;11.00;;
63965;SDS011;50151;52.030;5.350;2023-11-21T00:11:05;67.80;;;10.60;;
63965;SDS011;50151;52.030;5.350;2023-11-21T00:13:32;56.10;;;11.02;;
63965;SDS011;50151;52.030;5.350;2023-11-21T00:15:59;95.63;;;11.10;;
63965;SDS011;50151;52.030;5.350;2023-11-21T00:18:25;171.48;;;12.50;;
63965;SDS011;50151;52.030;5.350;2023-11-21T00:20:52;131.88;;;11.00;;
63965;SDS011;50151;52.030;5.350;2023-11-21T00:23:19;111.20;;;9.98;;
63965;SDS011;50151;52.030;5.350;2023-11-21T00:25:46;82.65;;;9.70;;
63965;SDS011;50151;52.030;5.350;2023-11-21T00:28:12;120.50;;;11.68;;
63965;SDS011;50151;52.030;5.350;2023-11-21T00:30:39;82.20;;;10.38;;
63965;SDS011;50151;52.030;5.350;2023-11-21T00:33:09;79.30;;;10.45;;
63965;SDS011;50151;52.030;5.350;2023-11-21T00:35:36;44.55;;;10.13;;
63965;SDS011;50151;52.030;5.350;2023-11-21T00:38:02;87.18;;;10.32;;
63965;SDS011;50151;52.030;5.350;2023-11-21T00:40:29;130.45;;;11.38;;
63965;SDS011;50151;52.030;5.350;2023-11-21T00:42:57;78.47;;;9.77;;
63965;SDS011;50151;52.030;5.350;2023-11-21T00:45:24;73.82;;;10.02;;
63965;SDS011;50151;52.030;5.350;2023-11-21T00:47:51;74.32;;;9.63;;
63965;SDS011;50151;52.030;5.350;2023-11-21T00:50:17;60.78;;;10.20;;
63965;SDS011;50151;52.030;5.350;2023-11-21T00:52:45;90.65;;;9.82;;
63965;SDS011;50151;52.030;5.350;2023-11-21T00:55:12;102.47;;;9.85;;
63965;SDS011;50151;52.030;5.350;2023-11-21T00:57:39;71.70;;;9.02;;
63965;SDS011;50151;52.030;5.350;2023-11-21T01:00:06;71.47;;;8.00;;
63965;SDS011;50151;52.030;5.350;2023-11-21T01:02:35;72.47;;;8.20;;
63965;SDS011;50151;52.030;5.350;2023-11-21T01:05:03;79.05;;;8.02;;
63965;SDS011;50151;52.030;5.350;2023-11-21T01:07:30;78.28;;;8.27;;
63965;SDS011;50151;52.030;5.350;2023-11-21T01:09:56;82.05;;;7.97;;
63965;SDS011;50151;52.030;5.350;2023-11-21T01:12:23;53.38;;;7.18;;
63965;SDS011;50151;52.030;5.350;2023-11-21T01:14:51;27.20;;;6.63;;
63965;SDS011;50151;52.030;5.350;2023-11-21T01:17:17;67.15;;;7.78;;
63965;SDS011;50151;52.030;5.350;2023-11-21T01:19:45;84.05;;;7.55;;
63965;SDS011;50151;52.030;5.350;2023-11-21T01:22:11;70.70;;;7.55;;
63965;SDS011;50151;52.030;5.350;2023-11-21T01:24:38;65.47;;;7.63;;
63965;SDS011;50151;52.030;5.350;2023-11-21T01:27:05;43.25;;;6.90;;
63965;SDS011;50151;52.030;5.350;2023-11-21T01:29:31;40.90;;;7.20;;
63965;SDS011;50151;52.030;5.350;2023-11-21T01:31:58;45.65;;;7.03;;
63965;SDS011;50151;52.030;5.350;2023-11-21T01:34:25;35.83;;;7.03;;
63965;SDS011;50151;52.030;5.350;2023-11-21T01:36:51;27.60;;;6.93;;
63965;SDS011;50151;52.030;5.350;2023-11-21T01:39:18;35.10;;;6.72;;
63965;SDS011;50151;52.030;5.350;2023-11-21T01:41:50;23.55;;;6.45;;
63965;SDS011;50151;52.030;5.350;2023-11-21T01:44:18;16.42;;;6.47;;
63965;SDS011;50151;52.030;5.350;2023-11-21T01:46:45;17.02;;;6.20;;
63965;SDS011;50151;52.030;5.350;2023-11-21T01:49:13;10.45;;;6.95;;
63965;SDS011;50151;52.030;5.350;2023-11-21T01:51:42;16.23;;;6.28;;
63965;SDS011;50151;52.030;5.350;2023-11-21T01:54:12;23.80;;;6.70;;
63965;SDS011;50151;52.030;5.350;2023-11-21T01:56:46;19.98;;;6.53;;
63965;SDS011;50151;52.030;5.350;2023-11-21T01:59:18;18.58;;;6.55;;
63965;SDS011;50151;52.030;5.350;2023-11-21T02:01:47;15.27;;;5.95;;
63965;SDS011;50151;52.030;5.350;2023-11-21T02:04:16;15.50;;;6.40;;
63965;SDS011;50151;52.030;5.350;2023-11-21T02:06:44;20.88;;;6.30;;
63965;SDS011;50151;52.030;5.350;2023-11-21T02:09:10;9.02;;;6.20;;
63965;SDS011;50151;52.030;5.350;2023-11-21T02:11:41;12.38;;;6.53;;
63965;SDS011;50151;52.030;5.350;2023-11-21T02:14:08;12.43;;;7.32;;
63965;SDS011;50151;52.030;5.350;2023-11-21T02:16:35;10.88;;;7.18;;
63965;SDS011;50151;52.030;5.350;2023-11-21T02:19:02;14.45;;;7.07;;
63965;SDS011;50151;52.030;5.350;2023-11-21T02:21:35;11.00;;;6.60;;
63965;SDS011;50151;52.030;5.350;2023-11-21T02:24:02;12.15;;;7.30;;
63965;SDS011;50151;52.030;5.350;2023-11-21T02:26:29;9.10;;;6.82;;
63965;SDS011;50151;52.030;5.350;2023-11-21T02:28:56;10.82;;;7.20;;
63965;SDS011;50151;52.030;5.350;2023-11-21T02:31:24;18.13;;;6.97;;
63965;SDS011;50151;52.030;5.350;2023-11-21T02:33:51;9.05;;;6.45;;
63965;SDS011;50151;52.030;5.350;2023-11-21T02:36:19;11.93;;;7.30;;
63965;SDS011;50151;52.030;5.350;2023-11-21T02:38:47;9.52;;;6.80;;
63965;SDS011;50151;52.030;5.350;2023-11-21T02:41:14;12.82;;;7.45;;
63965;SDS011;50151;52.030;5.350;2023-11-21T02:43:41;11.20;;;7.18;;
63965;SDS011;50151;52.030;5.350;2023-11-21T02:46:08;12.02;;;7.25;;
63965;SDS011;50151;52.030;5.350;2023-11-21T02:48:35;11.65;;;7.57;;
63965;SDS011;50151;52.030;5.350;2023-11-21T02:51:02;10.35;;;6.88;;
63965;SDS011;50151;52.030;5.350;2023-11-21T02:53:28;11.43;;;7.38;;
63965;SDS011;50151;52.030;5.350;2023-11-21T02:55:55;10.43;;;7.53;;
63965;SDS011;50151;52.030;5.350;2023-11-21T02:58:22;10.82;;;7.13;;
63965;SDS011;50151;52.030;5.350;2023-11-21T03:00:49;13.07;;;6.97;;
63965;SDS011;50151;52.030;5.350;2023-11-21T03:03:16;10.75;;;7.07;;
63965;SDS011;50151;52.030;5.350;2023-11-21T03:05:43;11.55;;;7.53;;
63965;SDS011;50151;52.030;5.350;2023-11-21T03:08:10;13.77;;;7.65;;
63965;SDS011;50151;52.030;5.350;2023-11-21T03:10:36;17.48;;;7.00;;
63965;SDS011;50151;52.030;5.350;2023-11-21T03:13:03;16.33;;;7.32;;
63965;SDS011;50151;52.030;5.350;2023-11-21T03:15:30;12.32;;;7.47;;
63965;SDS011;50151;52.030;5.350;2023-11-21T03:17:58;12.85;;;7.35;;
63965;SDS011;50151;52.030;5.350;2023-11-21T03:20:25;13.52;;;7.93;;
63965;SDS011;50151;52.030;5.350;2023-11-21T03:22:52;13.82;;;7.70;;
63965;SDS011;50151;52.030;5.350;2023-11-21T03:25:19;9.90;;;7.60;;
63965;SDS011;50151;52.030;5.350;2023-11-21T03:27:46;12.50;;;7.32;;
63965;SDS011;50151;52.030;5.350;2023-11-21T03:30:12;10.88;;;7.28;;
63965;SDS011;50151;52.030;5.350;2023-11-21T03:32:39;13.27;;;7.38;;
63965;SDS011;50151;52.030;5.350;2023-11-21T03:35:06;13.80;;;7.38;;
63965;SDS011;50151;52.030;5.350;2023-11-21T03:37:33;9.73;;;7.18;;
63965;SDS011;50151;52.030;5.350;2023-11-21T03:40:00;14.45;;;7.18;;
63965;SDS011;50151;52.030;5.350;2023-11-21T03:42:30;15.23;;;7.20;;
63965;SDS011;50151;52.030;5.350;2023-11-21T03:44:56;13.77;;;7.35;;
63965;SDS011;50151;52.030;5.350;2023-11-21T03:47:23;12.27;;;7.57;;
63965;SDS011;50151;52.030;5.350;2023-11-21T03:49:50;12.32;;;7.32;;
63965;SDS011;50151;52.030;5.350;2023-11-21T03:52:17;12.45;;;7.60;;
63965;SDS011;50151;52.030;5.350;2023-11-21T03:54:44;12.77;;;7.07;;
63965;SDS011;50151;52.030;5.350;2023-11-21T03:57:11;17.00;;;7.70;;
63965;SDS011;50151;52.030;5.350;2023-11-21T03:59:42;12.73;;;7.20;;
63965;SDS011;50151;52.030;5.350;2023-11-21T04:02:09;15.80;;;8.13;;
63965;SDS011;50151;52.030;5.350;2023-11-21T04:04:36;12.43;;;7.55;;
63965;SDS011;50151;52.030;5.350;2023-11-21T04:07:03;16.55;;;8.25;;
63965;SDS011;50151;52.030;5.350;2023-11-21T04:09:30;13.38;;;7.57;;
63965;SDS011;50151;52.030;5.350;2023-11-21T04:11:57;13.75;;;7.72;;
63965;SDS011;50151;52.030;5.350;2023-11-21T04:14:23;11.13;;;7.22;;
63965;SDS011;50151;52.030;5.350;2023-11-21T04:16:50;14.65;;;7.47;;
63965;SDS011;50151;52.030;5.350;2023-11-21T04:19:17;10.95;;;6.97;;
63965;SDS011;50151;52.030;5.350;2023-11-21T04:21:44;15.40;;;7.60;;
63965;SDS011;50151;52.030;5.350;2023-11-21T04:24:11;13.45;;;7.30;;
63965;SDS011;50151;52.030;5.350;2023-11-21T04:26:37;12.35;;;7.07;;
63965;SDS011;50151;52.030;5.350;2023-11-21T04:29:04;12.05;;;7.20;;
63965;SDS011;50151;52.030;5.350;2023-11-21T04:31:31;16.70;;;7.68;;
63965;SDS011;50151;52.030;5.350;2023-11-21T04:33:58;13.75;;;8.18;;
63965;SDS011;50151;52.030;5.350;2023-11-21T04:36:25;15.20;;;7.35;;
63965;SDS011;50151;52.030;5.350;2023-11-21T04:38:52;16.35;;;7.03;;
63965;SDS011;50151;52.030;5.350;2023-11-21T04:41:18;15.45;;;7.55;;
63965;SDS011;50151;52.030;5.350;2023-11-21T04:43:45;16.48;;;7.47;;
63965;SDS011;50151;52.030;5.350;2023-11-21T04:46:12;12.40;;;7.30;;
63965;SDS011;50151;52.030;5.350;2023-11-21T04:48:39;12.35;;;7.85;;
63965;SDS011;50151;52.030;5.350;2023-11-21T04:51:06;13.10;;;7.07;;
63965;SDS011;50151;52.030;5.350;2023-11-21T04:53:33;10.45;;;6.88;;
63965;SDS011;50151;52.030;5.350;2023-11-21T04:56:00;12.25;;;7.18;;
63965;SDS011;50151;52.030;5.350;2023-11-21T04:58:27;12.27;;;7.43;;
63965;SDS011;50151;52.030;5.350;2023-11-21T05:00:54;15.73;;;7.28;;
63965;SDS011;50151;52.030;5.350;2023-11-21T05:03:20;17.60;;;7.68;;
63965;SDS011;50151;52.030;5.350;2023-11-21T05:05:50;13.63;;;6.80;;
63965;SDS011;50151;52.030;5.350;2023-11-21T05:08:16;14.02;;;7.68;;
63965;SDS011;50151;52.030;5.350;2023-11-21T05:10:43;14.63;;;7.60;;
63965;SDS011;50151;52.030;5.350;2023-11-21T05:13:10;15.43;;;6.82;;
63965;SDS011;50151;52.030;5.350;2023-11-21T05:15:37;17.65;;;8.07;;
63965;SDS011;50151;52.030;5.350;2023-11-21T05:18:05;13.38;;;7.93;;
63965;SDS011;50151;52.030;5.350;2023-11-21T05:20:32;20.80;;;7.20;;
63965;SDS011;50151;52.030;5.350;2023-11-21T05:22:59;18.40;;;7.88;;
63965;SDS011;50151;52.030;5.350;2023-11-21T05:25:26;14.35;;;7.43;;
63965;SDS011;50151;52.030;5.350;2023-11-21T05:27:53;16.67;;;7.78;;
63965;SDS011;50151;52.030;5.350;2023-11-21T05:30:25;15.30;;;8.10;;
63965;SDS011;50151;52.030;5.350;2023-11-21T05:32:52;18.88;;;7.78;;
63965;SDS011;50151;52.030;5.350;2023-11-21T05:35:19;15.02;;;7.65;;
63965;SDS011;50151;52.030;5.350;2023-11-21T05:37:47;15.27;;;8.10;;
63965;SDS011;50151;52.030;5.350;2023-11-21T05:40:14;13.57;;;7.13;;
63965;SDS011;50151;52.030;5.350;2023-11-21T05:42:41;12.15;;;7.60;;
63965;SDS011;50151;52.030;5.350;2023-11-21T05:45:08;21.13;;;7.45;;
63965;SDS011;50151;52.030;5.350;2023-11-21T05:47:42;14.15;;;7.40;;
63965;SDS011;50151;52.030;5.350;2023-11-21T05:50:12;17.88;;;7.30;;
63965;SDS011;50151;52.030;5.350;2023-11-21T05:52:41;17.23;;;7.25;;
63965;SDS011;50151;52.030;5.350;2023-11-21T05:55:12;11.63;;;7.07;;
63965;SDS011;50151;52.030;5.350;2023-11-21T05:57:40;13.85;;;7.35;;
63965;SDS011;50151;52.030;5.350;2023-11-21T06:00:09;15.07;;;7.47;;
63965;SDS011;50151;52.030;5.350;2023-11-21T06:02:50;15.38;;;7.07;;
63965;SDS011;50151;52.030;5.350;2023-11-21T06:05:23;17.70;;;7.40;;
63965;SDS011;50151;52.030;5.350;2023-11-21T06:07:52;14.93;;;7.32;;
63965;SDS011;50151;52.030;5.350;2023-11-21T06:10:21;15.10;;;7.32;;
63965;SDS011;50151;52.030;5.350;2023-11-21T06:12:48;15.45;;;7.50;;
63965;SDS011;50151;52.030;5.350;2023-11-21T06:15:15;15.35;;;7.30;;
63965;SDS011;50151;52.030;5.350;2023-11-21T06:17:45;14.95;;;7.78;;
63965;SDS011;50151;52.030;5.350;2023-11-21T06:20:15;15.50;;;7.38;;
63965;SDS011;50151;52.030;5.350;2023-11-21T06:22:45;14.75;;;7.55;;
63965;SDS011;50151;52.030;5.350;2023-11-21T06:25:14;14.82;;;7.45;;
63965;SDS011;50151;52.030;5.350;2023-11-21T06:27:45;15.60;;;7.70;;
63965;SDS011;50151;52.030;5.350;2023-11-21T06:30:12;14.02;;;7.30;;
63965;SDS011;50151;52.030;5.350;2023-11-21T06:32:40;18.40;;;6.93;;
63965;SDS011;50151;52.030;5.350;2023-11-21T06:35:12;20.50;;;7.53;;
63965;SDS011;50151;52.030;5.350;2023-11-21T06:37:39;14.45;;;7.22;;
63965;SDS011;50151;52.030;5.350;2023-11-21T06:40:06;18.00;;;7.65;;
63965;SDS011;50151;52.030;5.350;2023-11-21T06:42:33;17.15;;;7.30;;
63965;SDS011;50151;52.030;5.350;2023-11-21T06:45:00;13.30;;;7.35;;
63965;SDS011;50151;52.030;5.350;2023-11-21T06:47:30;16.73;;;7.55;;
63965;SDS011;50151;52.030;5.350;2023-11-21T06:49:57;24.48;;;7.65;;
63965;SDS011;50151;52.030;5.350;2023-11-21T06:52:25;15.55;;;7.10;;
63965;SDS011;50151;52.030;5.350;2023-11-21T06:54:51;19.83;;;7.03;;
63965;SDS011;50151;52.030;5.350;2023-11-21T06:57:18;21.55;;;7.35;;
63965;SDS011;50151;52.030;5.350;2023-11-21T06:59:46;18.85;;;6.72;;
63965;SDS011;50151;52.030;5.350;2023-11-21T07:02:13;19.55;;;7.20;;
63965;SDS011;50151;52.030;5.350;2023-11-21T07:04:40;16.95;;;6.97;;
63965;SDS011;50151;52.030;5.350;2023-11-21T07:07:07;19.45;;;7.28;;
63965;SDS011;50151;52.030;5.350;2023-11-21T07:09:34;18.90;;;7.47;;
63965;SDS011;50151;52.030;5.350;2023-11-21T07:12:01;19.85;;;7.25;;
63965;SDS011;50151;52.030;5.350;2023-11-21T07:14:30;16.35;;;6.80;;
63965;SDS011;50151;52.030;5.350;2023-11-21T07:16:56;21.30;;;7.00;;
63965;SDS011;50151;52.030;5.350;2023-11-21T07:19:23;17.52;;;6.97;;
63965;SDS011;50151;52.030;5.350;2023-11-21T07:21:50;11.70;;;6.40;;
63965;SDS011;50151;52.030;5.350;2023-11-21T07:24:17;16.50;;;6.95;;
63965;SDS011;50151;52.030;5.350;2023-11-21T07:26:44;15.52;;;6.93;;
63965;SDS011;50151;52.030;5.350;2023-11-21T07:29:11;17.20;;;6.68;;
63965;SDS011;50151;52.030;5.350;2023-11-21T07:31:39;19.17;;;6.50;;
63965;SDS011;50151;52.030;5.350;2023-11-21T07:34:07;17.70;;;6.95;;
63965;SDS011;50151;52.030;5.350;2023-11-21T07:36:34;16.40;;;6.88;;
63965;SDS011;50151;52.030;5.350;2023-11-21T07:39:01;11.57;;;6.40;;
63965;SDS011;50151;52.030;5.350;2023-11-21T07:41:28;14.38;;;6.85;;
63965;SDS011;50151;52.030;5.350;2023-11-21T07:43:57;18.77;;;6.75;;
63965;SDS011;50151;52.030;5.350;2023-11-21T07:46:25;16.80;;;7.05;;
63965;SDS011;50151;52.030;5.350;2023-11-21T07:48:53;18.80;;;6.45;;
63965;SDS011;50151;52.030;5.350;2023-11-21T07:51:21;14.27;;;6.03;;
63965;SDS011;50151;52.030;5.350;2023-11-21T07:53:48;13.38;;;6.72;;
63965;SDS011;50151;52.030;5.350;2023-11-21T07:56:15;11.90;;;6.35;;
63965;SDS011;50151;52.030;5.350;2023-11-21T07:58:42;18.52;;;6.72;;
63965;SDS011;50151;52.030;5.350;2023-11-21T08:01:09;16.73;;;6.72;;
63965;SDS011;50151;52.030;5.350;2023-11-21T08:03:36;16.30;;;7.35;;
63965;SDS011;50151;52.030;5.350;2023-11-21T08:06:03;17.15;;;7.38;;
63965;SDS011;50151;52.030;5.350;2023-11-21T08:08:32;16.70;;;6.60;;
63965;SDS011;50151;52.030;5.350;2023-11-21T08:10:59;16.13;;;6.97;;
63965;SDS011;50151;52.030;5.350;2023-11-21T08:13:28;14.50;;;6.70;;
63965;SDS011;50151;52.030;5.350;2023-11-21T08:15:57;17.58;;;7.05;;
63965;SDS011;50151;52.030;5.350;2023-11-21T08:18:31;16.95;;;6.75;;
63965;SDS011;50151;52.030;5.350;2023-11-21T08:20:57;14.48;;;6.80;;
63965;SDS011;50151;52.030;5.350;2023-11-21T08:23:24;14.45;;;6.28;;
63965;SDS011;50151;52.030;5.350;2023-11-21T08:25:54;16.75;;;7.20;;
63965;SDS011;50151;52.030;5.350;2023-11-21T08:28:21;15.43;;;6.97;;
63965;SDS011;50151;52.030;5.350;2023-11-21T08:30:52;12.63;;;6.80;;
63965;SDS011;50151;52.030;5.350;2023-11-21T08:33:20;13.77;;;6.97;;
63965;SDS011;50151;52.030;5.350;2023-11-21T08:35:47;14.32;;;6.93;;
63965;SDS011;50151;52.030;5.350;2023-11-21T08:38:14;14.70;;;6.72;;
63965;SDS011;50151;52.030;5.350;2023-11-21T08:40:41;13.70;;;6.28;;
63965;SDS011;50151;52.030;5.350;2023-11-21T08:43:07;23.95;;;6.57;;
63965;SDS011;50151;52.030;5.350;2023-11-21T08:45:34;9.57;;;5.93;;
63965;SDS011;50151;52.030;5.350;2023-11-21T08:48:01;9.90;;;6.32;;
63965;SDS011;50151;52.030;5.350;2023-11-21T08:50:28;17.90;;;6.65;;
63965;SDS011;50151;52.030;5.350;2023-11-21T08:52:55;15.77;;;6.45;;
63965;SDS011;50151;52.030;5.350;2023-11-21T08:55:22;11.75;;;6.05;;
63965;SDS011;50151;52.030;5.350;2023-11-21T08:57:49;9.85;;;5.47;;
63965;SDS011;50151;52.030;5.350;2023-11-21T09:00:17;14.13;;;6.70;;
63965;SDS011;50151;52.030;5.350;2023-11-21T09:02:44;13.57;;;5.65;;
63965;SDS011;50151;52.030;5.350;2023-11-21T09:05:12;12.80;;;6.05;;
63965;SDS011;50151;52.030;5.350;2023-11-21T09:07:40;13.15;;;6.20;;
63965;SDS011;50151;52.030;5.350;2023-11-21T09:10:08;10.38;;;5.72;;
63965;SDS011;50151;52.030;5.350;2023-11-21T09:12:36;15.27;;;6.32;;
63965;SDS011;50151;52.030;5.350;2023-11-21T09:15:06;13.25;;;5.25;;
63965;SDS011;50151;52.030;5.350;2023-11-21T09:17:33;7.57;;;4.90;;
63965;SDS011;50151;52.030;5.350;2023-11-21T09:20:01;15.50;;;4.75;;
63965;SDS011;50151;52.030;5.350;2023-11-21T09:22:30;9.23;;;4.63;;
63965;SDS011;50151;52.030;5.350;2023-11-21T09:24:58;6.85;;;4.38;;
63965;SDS011;50151;52.030;5.350;2023-11-21T09:27:25;12.35;;;5.35;;
63965;SDS011;50151;52.030;5.350;2023-11-21T09:29:54;9.50;;;5.13;;
63965;SDS011;50151;52.030;5.350;2023-11-21T09:32:21;9.35;;;4.80;;
63965;SDS011;50151;52.030;5.350;2023-11-21T09:34:49;8.00;;;4.55;;
63965;SDS011;50151;52.030;5.350;2023-11-21T09:37:16;15.30;;;5.38;;
63965;SDS011;50151;52.030;5.350;2023-11-21T09:39:43;8.25;;;5.28;;
63965;SDS011;50151;52.030;5.350;2023-11-21T09:42:12;8.20;;;5.00;;
63965;SDS011;50151;52.030;5.350;2023-11-21T09:47:35;9.00;;;5.50;;
63965;SDS011;50151;52.030;5.350;2023-11-21T09:50:04;8.15;;;5.20;;
63965;SDS011;50151;52.030;5.350;2023-11-21T09:52:37;12.73;;;5.63;;
63965;SDS011;50151;52.030;5.350;2023-11-21T09:55:29;8.63;;;5.82;;
63965;SDS011;50151;52.030;5.350;2023-11-21T09:58:02;9.77;;;6.00;;
63965;SDS011;50151;52.030;5.350;2023-11-21T10:00:32;12.07;;;5.80;;
63965;SDS011;50151;52.030;5.350;2023-11-21T10:02:59;12.73;;;6.72;;
63965;SDS011;50151;52.030;5.350;2023-11-21T10:05:26;11.90;;;6.60;;
63965;SDS011;50151;52.030;5.350;2023-11-21T10:07:55;11.57;;;6.53;;
63965;SDS011;50151;52.030;5.350;2023-11-21T10:10:23;11.30;;;6.82;;
63965;SDS011;50151;52.030;5.350;2023-11-21T10:12:53;13.25;;;7.07;;
63965;SDS011;50151;52.030;5.350;2023-11-21T10:15:23;11.55;;;6.30;;
63965;SDS011;50151;52.030;5.350;2023-11-21T10:17:53;14.25;;;7.30;;
63965;SDS011;50151;52.030;5.350;2023-11-21T10:20:22;16.70;;;7.40;;
63965;SDS011;50151;52.030;5.350;2023-11-21T10:22:50;11.55;;;6.75;;
63965;SDS011;50151;52.030;5.350;2023-11-21T10:25:17;10.02;;;5.80;;
63965;SDS011;50151;52.030;5.350;2023-11-21T10:27:47;11.23;;;7.57;;
63965;SDS011;50151;52.030;5.350;2023-11-21T10:30:17;11.63;;;6.68;;
63965;SDS011;50151;52.030;5.350;2023-11-21T10:32:44;13.65;;;6.65;;
63965;SDS011;50151;52.030;5.350;2023-11-21T10:35:11;13.57;;;6.95;;
63965;SDS011;50151;52.030;5.350;2023-11-21T10:37:41;13.82;;;6.78;;
63965;SDS011;50151;52.030;5.350;2023-11-21T10:40:09;12.38;;;7.07;;
63965;SDS011;50151;52.030;5.350;2023-11-21T10:42:39;15.18;;;6.55;;
63965;SDS011;50151;52.030;5.350;2023-11-21T10:45:07;10.45;;;6.07;;
63965;SDS011;50151;52.030;5.350;2023-11-21T10:47:41;10.95;;;6.38;;
63965;SDS011;50151;52.030;5.350;2023-11-21T10:50:10;13.00;;;6.28;;
63965;SDS011;50151;52.030;5.350;2023-11-21T10:52:41;9.93;;;5.65;;
63965;SDS011;50151;52.030;5.350;2023-11-21T10:55:20;11.50;;;6.20;;
63965;SDS011;50151;52.030;5.350;2023-11-21T10:57:52;9.00;;;5.35;;
63965;SDS011;50151;52.030;5.350;2023-11-21T11:00:19;8.98;;;5.10;;
63965;SDS011;50151;52.030;5.350;2023-11-21T11:02:53;6.22;;;4.45;;
63965;SDS011;50151;52.030;5.350;2023-11-21T11:05:28;7.80;;;4.68;;
63965;SDS011;50151;52.030;5.350;2023-11-21T11:07:59;6.60;;;4.40;;
63965;SDS011;50151;52.030;5.350;2023-11-21T11:10:28;10.63;;;5.55;;
63965;SDS011;50151;52.030;5.350;2023-11-21T11:12:58;8.88;;;5.32;;
63965;SDS011;50151;52.030;5.350;2023-11-21T11:15:25;11.52;;;5.88;;
63965;SDS011;50151;52.030;5.350;2023-11-21T11:17:53;10.32;;;6.40;;
63965;SDS011;50151;52.030;5.350;2023-11-21T11:20:25;11.93;;;6.30;;
63965;SDS011;50151;52.030;5.350;2023-11-21T11:26:18;9.50;;;5.53;;
63965;SDS011;50151;52.030;5.350;2023-11-21T11:29:01;9.00;;;5.45;;
63965;SDS011;50151;52.030;5.350;2023-11-21T11:31:40;9.07;;;5.35;;
63965;SDS011;50151;52.030;5.350;2023-11-21T11:36:49;10.55;;;5.20;;
63965;SDS011;50151;52.030;5.350;2023-11-21T11:39:38;9.02;;;5.63;;
63965;SDS011;50151;52.030;5.350;2023-11-21T11:42:14;10.40;;;5.25;;
63965;SDS011;50151;52.030;5.350;2023-11-21T11:47:13;9.52;;;5.95;;
63965;SDS011;50151;52.030;5.350;2023-11-21T11:49:56;12.48;;;6.35;;
63965;SDS011;50151;52.030;5.350;2023-11-21T11:52:38;11.02;;;5.93;;
63965;SDS011;50151;52.030;5.350;2023-11-21T11:55:12;10.95;;;6.60;;
63965;SDS011;50151;52.030;5.350;2023-11-21T11:57:41;9.88;;;6.55;;
63965;SDS011;50151;52.030;5.350;2023-11-21T12:02:49;8.10;;;5.93;;
63965;SDS011;50151;52.030;5.350;2023-11-21T12:05:19;10.45;;;6.28;;
63965;SDS011;50151;52.030;5.350;2023-11-21T12:07:55;10.90;;;6.60;;
63965;SDS011;50151;52.030;5.350;2023-11-21T12:10:24;9.95;;;6.40;;
63965;SDS011;50151;52.030;5.350;2023-11-21T12:12:55;9.73;;;6.07;;
63965;SDS011;50151;52.030;5.350;2023-11-21T12:15:24;9.15;;;6.25;;
63965;SDS011;50151;52.030;5.350;2023-11-21T12:17:51;9.80;;;5.90;;
63965;SDS011;50151;52.030;5.350;2023-11-21T12:20:19;11.25;;;6.55;;
63965;SDS011;50151;52.030;5.350;2023-11-21T12:25:22;8.80;;;6.20;;
63965;SDS011;50151;52.030;5.350;2023-11-21T12:27:51;9.82;;;6.03;;
63965;SDS011;50151;52.030;5.350;2023-11-21T12:30:19;11.65;;;6.72;;
63965;SDS011;50151;52.030;5.350;2023-11-21T12:32:51;11.02;;;6.88;;
63965;SDS011;50151;52.030;5.350;2023-11-21T12:35:21;9.75;;;6.45;;
63965;SDS011;50151;52.030;5.350;2023-11-21T12:37:50;9.80;;;6.68;;
63965;SDS011;50151;52.030;5.350;2023-11-21T12:40:18;11.63;;;6.93;;
63965;SDS011;50151;52.030;5.350;2023-11-21T12:42:46;9.23;;;5.90;;
63965;SDS011;50151;52.030;5.350;2023-11-21T12:45:24;10.88;;;6.45;;
63965;SDS011;50151;52.030;5.350;2023-11-21T12:50:27;11.82;;;7.28;;
63965;SDS011;50151;52.030;5.350;2023-11-21T12:52:59;10.38;;;6.38;;
63965;SDS011;50151;52.030;5.350;2023-11-21T12:55:29;10.50;;;6.50;;
63965;SDS011;50151;52.030;5.350;2023-11-21T12:57:57;12.82;;;6.70;;
63965;SDS011;50151;52.030;5.350;2023-11-21T13:00:33;13.82;;;7.10;;
63965;SDS011;50151;52.030;5.350;2023-11-21T13:03:04;10.10;;;6.30;;
63965;SDS011;50151;52.030;5.350;2023-11-21T13:05:38;12.98;;;7.25;;
63965;SDS011;50151;52.030;5.350;2023-11-21T13:08:10;8.90;;;5.35;;
63965;SDS011;50151;52.030;5.350;2023-11-21T13:10:43;10.10;;;6.60;;
63965;SDS011;50151;52.030;5.350;2023-11-21T13:13:13;12.00;;;6.68;;
63965;SDS011;50151;52.030;5.350;2023-11-21T13:15:50;12.40;;;7.40;;
63965;SDS011;50151;52.030;5.350;2023-11-21T13:18:18;11.40;;;7.25;;
63965;SDS011;50151;52.030;5.350;2023-11-21T13:20:48;15.23;;;7.47;;
63965;SDS011;50151;52.030;5.350;2023-11-21T13:23:16;11.35;;;6.70;;
63965;SDS011;50151;52.030;5.350;2023-11-21T13:25:43;12.32;;;7.68;;
63965;SDS011;50151;52.030;5.350;2023-11-21T13:28:19;10.80;;;7.70;;
63965;SDS011;50151;52.030;5.350;2023-11-21T13:30:48;14.23;;;6.75;;
63965;SDS011;50151;52.030;5.350;2023-11-21T13:33:18;10.07;;;7.07;;
63965;SDS011;50151;52.030;5.350;2023-11-21T13:35:48;11.25;;;6.65;;
63965;SDS011;50151;52.030;5.350;2023-11-21T13:38:17;11.38;;;7.30;;
63965;SDS011;50151;52.030;5.350;2023-11-21T13:40:49;12.80;;;6.82;;
63965;SDS011;50151;52.030;5.350;2023-11-21T13:43:20;11.75;;;6.45;;
63965;SDS011;50151;52.030;5.350;2023-11-21T13:45:50;11.85;;;6.63;;
63965;SDS011;50151;52.030;5.350;2023-11-21T13:48:26;11.82;;;6.30;;
63965;SDS011;50151;52.030;5.350;2023-11-21T13:51:00;9.32;;;5.97;;
63965;SDS011;50151;52.030;5.350;2023-11-21T13:53:36;11.80;;;5.72;;
63965;SDS011;50151;52.030;5.350;2023-11-21T13:56:05;9.48;;;5.57;;
63965;SDS011;50151;52.030;5.350;2023-11-21T13:58:32;9.00;;;5.47;;
63965;SDS011;50151;52.030;5.350;2023-11-21T14:01:10;9.23;;;4.97;;
63965;SDS011;50151;52.030;5.350;2023-11-21T14:03:50;8.73;;;4.55;;
63965;SDS011;50151;52.030;5.350;2023-11-21T14:06:26;9.65;;;4.07;;
63965;SDS011;50151;52.030;5.350;2023-11-21T14:09:00;6.63;;;3.50;;
63965;SDS011;50151;52.030;5.350;2023-11-21T14:11:31;6.38;;;3.83;;
63965;SDS011;50151;52.030;5.350;2023-11-21T14:14:08;6.20;;;3.70;;
63965;SDS011;50151;52.030;5.350;2023-11-21T14:16:36;6.07;;;3.70;;
63965;SDS011;50151;52.030;5.350;2023-11-21T14:19:03;6.40;;;3.70;;
63965;SDS011;50151;52.030;5.350;2023-11-21T14:21:42;6.68;;;4.18;;
63965;SDS011;50151;52.030;5.350;2023-11-21T14:24:10;9.27;;;5.90;;
63965;SDS011;50151;52.030;5.350;2023-11-21T14:26:40;10.02;;;6.18;;
63965;SDS011;50151;52.030;5.350;2023-11-21T14:29:08;9.75;;;6.28;;
63965;SDS011;50151;52.030;5.350;2023-11-21T14:31:38;12.00;;;7.35;;
63965;SDS011;50151;52.030;5.350;2023-11-21T14:34:06;10.30;;;7.22;;
63965;SDS011;50151;52.030;5.350;2023-11-21T14:36:33;14.40;;;8.32;;
63965;SDS011;50151;52.030;5.350;2023-11-21T14:39:01;12.57;;;7.07;;
63965;SDS011;50151;52.030;5.350;2023-11-21T14:41:27;13.70;;;8.38;;
63965;SDS011;50151;52.030;5.350;2023-11-21T14:43:55;15.00;;;8.88;;
63965;SDS011;50151;52.030;5.350;2023-11-21T14:46:23;13.98;;;8.32;;
63965;SDS011;50151;52.030;5.350;2023-11-21T14:48:50;13.45;;;9.00;;
63965;SDS011;50151;52.030;5.350;2023-11-21T14:51:33;12.25;;;8.73;;
63965;SDS011;50151;52.030;5.350;2023-11-21T14:54:20;12.55;;;8.43;;
63965;SDS011;50151;52.030;5.350;2023-11-21T14:57:01;13.90;;;8.80;;
63965;SDS011;50151;52.030;5.350;2023-11-21T14:59:28;13.68;;;9.05;;
63965;SDS011;50151;52.030;5.350;2023-11-21T15:01:54;13.68;;;8.88;;
63965;SDS011;50151;52.030;5.350;2023-11-21T15:04:22;14.32;;;9.55;;